Lisbon, Louisiana
Current Conditions -  °F | °C
As of 7:15 PM on Sunday 23 Nov 2014 (Local Time) from KRSN Reporting Station
Clear Clear  
Wind Chill: 64°   Ceiling: Unl
Heat Index: 64°   Visibility: 10mi
Dew Point: 60°   Wind: 10mph
Humidity: 88%   Direction: 200°SSW
Pressure: 29.54"   Gusts: NA
Location:  32.8°N, 92.87°W
Report Text: KRSN 240115Z AUTO 20009KT 10SM CLR 18/16 A2954 RMK AO2 P0001 T01760156
Loading
Personal Weather Stations






























Interactive Weather Map New forecast layout! Learn more

10-Day Weather Forecast

Advertisements
Track Severe Weather on mobile